Aeroporto :
LOGIN :

Iscrizione | Disclaimer

   EN    FR    IT 

 










Sommario :    VFR   VFR Marginale   IFR   IFR Intensivo   IFR Molto Intensivo
Visibilità : 
Base nubi : 
>= 8 km
>= 3000ft
5 / 8 km
1000 / 3000 ft
1500m / 5 km
500 / 1000 ft
800 / 1500m
200 / 500 ft
< 800m
< 200 ft
Simboli :   Temporali  Nebbia  Neve Forte  Precipitazioni Forti  Vento > 20 kt
SIGMETs :   Varie  Temporali  Ghiacco  Turbolenza  Onda orograficha  Ceneri Vulcaniche






- Altitudine del aeroporto : 1959 ft
- Codice IATA : HOQ


EDQM - Hof Plauen

ULTIMO METAR :
  • 181320Z VRB02KT CAVOK 21/11 Q1025

METARs OBSOLETI :
  • 181250Z 09004KT 050V140 CAVOK 21/11 Q1025
  • 181220Z 09006KT 030V150 CAVOK 21/11 Q1025
  • 181150Z 19005KT 140V250 CAVOK 23/12 Q1025
  • 181120Z 18004KT 080V240 9999 SCT046 23/12 Q1026
  • 181050Z 18004KT 080V240 9999 SCT046 23/12 Q1026

TAF TAF EDQM
Valido dal 18 a 12 ore il 18 a 21 ore UTC


181100Z 1812/1821 15005KT CAVOK



MetMap, La meteo Aeronautica in un colpo d'occhio ! - Copyright ORBIFLY Dicembre 2007 - Disclaimer

ORBIFLY MET'MAP TEAM :

Programmazione e sviluppo : Alexandra Zaïnal
Concezione : Baudouin d'Aumeries
Supporto tecnico e logistico : Manuel Goepfert
Aiuto : Marc-Olivier Méhu
Aiuto per la traduzione : Arnaldo La Scala

Contatto : metmap@orbifly.com




FONTI E CREDITI :

   NOAA